Time;durP1;ratioP1;P1;durP2;ratioP2;P2;SDS_P1;SDS_P2;PMS_P1;PMS_P2;Temp;Humidity;BMP_temperature;BMP_pressure;BME280_temperature;BME280_humidity;BME280_pressure;Samples;Min_cycle;Max_cycle;Signal;HPM_P1;HPM_P2
2022/12/20 00:01:26;;;;;;;8.88;3.28;;;;;;;6.83;90.34;98965.25;5018687;28;19921;-41
2022/12/20 00:03:55;;;;;;;9.27;1.77;;;;;;;6.82;90.50;98958.16;5029493;28;20041;-41
2022/12/20 00:06:23;;;;;;;14.35;3.95;;;;;;;6.83;90.56;98976.25;5029545;28;20127;-41
2022/12/20 00:08:54;;;;;;;14.63;2.25;;;;;;;6.85;90.63;98973.94;5025935;28;20049;-40
2022/12/20 00:11:22;;;;;;;19.15;2.72;;;;;;;6.86;90.74;98981.03;5029461;28;20080;-47
2022/12/20 00:13:49;;;;;;;11.70;2.58;;;;;;;6.88;90.84;98984.22;5016330;28;20057;-42
2022/12/20 00:16:18;;;;;;;15.85;2.50;;;;;;;6.88;90.67;98974.03;5029656;28;20052;-42
2022/12/20 00:18:46;;;;;;;6.55;2.10;;;;;;;6.90;90.91;98979.16;5015096;28;20128;-45
2022/12/20 00:21:14;;;;;;;13.60;2.42;;;;;;;6.91;90.75;98978.78;5029008;28;20290;-40
2022/12/20 00:23:41;;;;;;;14.02;4.63;;;;;;;6.94;90.64;98966.25;4995029;28;20053;-40
2022/12/20 00:26:07;;;;;;;15.10;3.55;;;;;;;6.93;90.72;98972.91;5028448;28;20494;-40
2022/12/20 00:28:35;;;;;;;9.15;2.40;;;;;;;6.92;90.79;98971.31;5028097;28;20038;-42
2022/12/20 00:31:03;;;;;;;10.95;2.75;;;;;;;6.92;90.86;98976.81;5028930;28;20054;-40
2022/12/20 00:33:31;;;;;;;14.30;2.83;;;;;;;6.94;90.84;98971.75;5028331;28;20080;-45
2022/12/20 00:35:59;;;;;;;10.05;2.10;;;;;;;6.98;90.85;98964.38;5028396;28;20111;-42
2022/12/20 00:38:26;;;;;;;14.98;4.28;;;;;;;7.04;90.71;98968.41;5028650;28;20061;-44
2022/12/20 00:41:05;;;;;;;19.23;4.05;;;;;;;7.09;90.71;98968.13;5008120;28;20041;-40
2022/12/20 00:43:33;;;;;;;12.23;2.78;;;;;;;7.09;90.85;98968.13;5022719;28;20048;-43
2022/12/20 00:46:00;;;;;;;16.60;4.10;;;;;;;7.11;90.84;98963.03;5025546;28;20049;-41
2022/12/20 00:48:29;;;;;;;12.32;2.47;;;;;;;7.15;91.01;98963.88;5025725;28;20426;-45
2022/12/20 00:51:03;;;;;;;13.85;2.78;;;;;;;7.18;90.85;98971.41;5025336;28;20049;-41
2022/12/20 00:53:31;;;;;;;11.82;2.28;;;;;;;7.20;90.93;98966.38;5027762;28;20049;-41
2022/12/20 00:55:57;;;;;;;23.10;3.58;;;;;;;7.23;90.80;98962.84;5018980;28;20469;-42
2022/12/20 00:58:25;;;;;;;15.00;2.83;;;;;;;7.25;90.94;98958.56;5023640;28;20034;-41
2022/12/20 01:00:53;;;;;;;14.73;3.45;;;;;;;7.29;90.85;98951.19;5027623;28;20049;-46
2022/12/20 01:03:23;;;;;;;15.63;3.70;;;;;;;7.33;90.90;98967.78;5024706;28;20385;-41
2022/12/20 01:05:53;;;;;;;12.00;3.25;;;;;;;7.33;90.78;98973.28;5028490;28;20496;-41
2022/12/20 01:08:20;;;;;;;15.88;4.30;;;;;;;7.32;90.72;98971.69;5024842;28;20038;-41
2022/12/20 01:11:16;;;;;;;17.30;3.17;;;;;;;7.34;90.73;98967.41;5028136;28;20057;-47
2022/12/20 01:13:46;;;;;;;20.35;4.95;;;;;;;7.34;90.70;98969.34;5026155;28;20033;-41
2022/12/20 01:16:14;;;;;;;8.80;3.35;;;;;;;7.34;90.78;98981.16;5021593;28;20048;-41
2022/12/20 01:18:41;;;;;;;16.90;2.90;;;;;;;7.33;90.71;98962.28;5027619;28;20048;-41
2022/12/20 01:21:10;;;;;;;11.93;2.38;;;;;;;7.29;90.66;98973.22;5028022;28;20049;-42
2022/12/20 01:23:37;;;;;;;15.82;3.28;;;;;;;7.27;90.82;98975.53;5027549;28;20073;-41
2022/12/20 01:26:08;;;;;;;15.65;2.45;;;;;;;7.28;90.89;98973.59;5027783;28;20079;-42
2022/12/20 01:28:35;;;;;;;18.65;2.92;;;;;;;7.29;90.81;98973.22;5026535;28;20325;-42
2022/12/20 01:31:06;;;;;;;24.05;4.18;;;;;;;7.32;90.74;98966.19;5027056;28;20037;-40
2022/12/20 01:33:34;;;;;;;18.85;2.72;;;;;;;7.35;90.83;98965.44;5026940;28;20584;-40
2022/12/20 01:36:04;;;;;;;10.30;2.50;;;;;;;7.35;90.96;98966.25;5027706;28;20045;-44
2022/12/20 01:38:32;;;;;;;12.38;2.80;;;;;;;7.34;90.80;98972.09;5027741;28;20136;-40
2022/12/20 01:40:59;;;;;;;10.70;2.45;;;;;;;7.30;90.84;98968.50;5027305;28;20459;-43
2022/12/20 01:43:51;;;;;;;18.60;3.58;;;;;;;7.26;90.57;98968.44;5027264;28;20041;-48
2022/12/20 01:46:20;;;;;;;18.60;3.38;;;;;;;7.23;90.78;98973.88;5016163;28;20381;-41
2022/12/20 01:48:55;;;;;;;14.10;3.50;;;;;;;7.22;90.92;98972.28;5025781;28;20041;-41
2022/12/20 01:51:23;;;;;;;12.75;3.28;;;;;;;7.21;91.06;98970.69;5008250;28;20057;-42
2022/12/20 01:53:56;;;;;;;21.77;3.15;;;;;;;7.20;91.15;98969.13;5008594;28;20056;-48
2022/12/20 01:56:23;;;;;;;14.85;2.70;;;;;;;7.19;91.16;98964.75;5026375;28;20048;-41
2022/12/20 01:58:52;;;;;;;24.70;4.25;;;;;;;7.19;91.24;98973.03;5024041;28;20045;-41
2022/12/20 02:01:21;;;;;;;21.35;3.42;;;;;;;7.21;91.28;98967.94;5017617;28;20049;-41
2022/12/20 02:03:50;;;;;;;13.30;2.80;;;;;;;7.22;91.37;98972.28;5025812;28;20548;-40
2022/12/20 02:06:19;;;;;;;13.15;2.60;;;;;;;7.23;91.04;98973.88;5025953;28;20464;-42
2022/12/20 02:08:49;;;;;;;21.05;4.53;;;;;;;7.20;91.26;98980.13;5018696;28;20577;-40
2022/12/20 02:11:28;;;;;;;14.30;3.00;;;;;;;7.17;91.30;98976.16;5026293;28;20045;-43
2022/12/20 02:14:34;;;;;;;21.58;3.22;;;;;;;7.18;91.44;98971.41;5023617;28;20054;-41
2022/12/20 02:17:28;;;;;;;14.13;3.53;;;;;;;7.18;91.34;98976.91;5020029;28;20475;-41
2022/12/20 02:20:52;;;;;;;26.52;4.28;;;;;;;7.14;91.40;98968.63;5020642;28;20048;-41
2022/12/20 02:23:44;;;;;;;22.95;3.58;;;;;;;7.14;91.31;98976.88;4965857;28;20047;-40
2022/12/20 02:26:11;;;;;;;;;;;;;;;7.12;91.35;98972.91;4966191;28;20493;-42
2022/12/20 02:29:15;;;;;;;22.05;3.10;;;;;;;7.10;91.17;98980.69;5007180;28;20642;-44
2022/12/20 02:31:54;;;;;;;21.15;3.42;;;;;;;7.06;91.43;98975.16;5026546;28;20060;-48
2022/12/20 02:34:26;;;;;;;16.95;3.78;;;;;;;7.04;91.50;98982.94;5026067;28;20049;-48
2022/12/20 02:36:53;;;;;;;24.55;3.05;;;;;;;7.00;91.76;98986.81;5027043;28;20129;-42
2022/12/20 02:39:22;;;;;;;21.25;6.72;;;;;;;6.98;91.73;98989.13;5026926;28;20398;-40
2022/12/20 02:41:56;;;;;;;16.42;3.28;;;;;;;6.95;91.91;98987.09;5017835;28;20139;-41
2022/12/20 02:47:18;;;;;;;15.52;4.07;;;;;;;6.94;91.84;98983.53;5021646;28;20052;-43
2022/12/20 02:49:48;;;;;;;22.70;4.82;;;;;;;6.95;91.92;98996.16;5017656;28;20044;-45
2022/12/20 02:52:20;;;;;;;26.65;4.20;;;;;;;6.96;91.87;98986.75;5013342;28;20054;-41
2022/12/20 02:54:47;;;;;;;25.45;4.15;;;;;;;6.94;91.90;98986.31;5024514;28;20049;-49
2022/12/20 02:57:20;;;;;;;16.52;3.58;;;;;;;6.91;91.95;98989.78;5026177;28;20133;-47
2022/12/20 03:00:09;;;;;;;21.88;4.53;;;;;;;6.89;92.24;98985.78;5024443;28;20053;-43
2022/12/20 03:05:26;;;;;;;20.30;2.80;;;;;;;6.88;92.15;98984.22;5021744;28;20045;-41
2022/12/20 03:07:54;;;;;;;22.23;5.60;;;;;;;6.87;92.13;98982.63;5023018;28;20056;-41
2022/12/20 03:10:22;;;;;;;16.70;2.80;;;;;;;6.85;92.13;98987.69;5027940;28;20136;-41
2022/12/20 03:12:49;;;;;;;15.07;3.15;;;;;;;6.83;92.28;98987.28;5046536;28;20061;-41
2022/12/20 03:15:15;;;;;;;17.13;4.55;;;;;;;6.80;92.39;98983.28;5039783;28;20052;-42
2022/12/20 03:17:42;;;;;;;24.60;3.92;;;;;;;6.78;92.40;98982.84;5023645;28;20049;-44
2022/12/20 03:20:10;;;;;;;19.15;3.63;;;;;;;6.75;92.59;98980.84;5044787;28;20052;-42
2022/12/20 03:22:37;;;;;;;16.38;2.58;;;;;;;6.74;92.74;98984.72;5039172;28;20091;-41
2022/12/20 03:25:05;;;;;;;16.55;3.50;;;;;;;6.73;92.66;98981.19;5049766;28;20049;-45
2022/12/20 03:27:32;;;;;;;22.35;2.95;;;;;;;6.72;92.65;98982.31;5066965;28;20056;-42
2022/12/20 03:30:02;;;;;;;16.27;2.58;;;;;;;6.70;92.79;98979.16;5070378;28;20044;-41
2022/12/20 03:32:29;;;;;;;22.40;4.65;;;;;;;6.68;92.57;98984.22;5057258;28;20053;-41
2022/12/20 03:34:55;;;;;;;20.90;5.20;;;;;;;6.65;92.92;98992.41;5044301;28;20045;-41
2022/12/20 03:37:22;;;;;;;23.63;6.75;;;;;;;6.65;93.22;98990.44;5048857;28;20049;-42
2022/12/20 03:39:49;;;;;;;22.33;2.97;;;;;;;6.65;93.05;98993.19;5048260;28;20037;-41
2022/12/20 03:42:17;;;;;;;14.77;2.85;;;;;;;6.65;93.11;98995.94;5048464;28;20099;-41
2022/12/20 03:44:44;;;;;;;26.42;4.25;;;;;;;6.66;92.88;98989.28;5052059;28;20505;-42
2022/12/20 03:47:11;;;;;;;21.88;3.63;;;;;;;6.64;93.13;99002.63;5047999;28;20120;-41
2022/12/20 03:49:37;;;;;;;16.42;3.35;;;;;;;6.62;93.08;98999.41;5040277;28;20103;-41
2022/12/20 03:52:04;;;;;;;17.00;3.67;;;;;;;6.62;93.23;99010.41;5049218;28;20057;-43
2022/12/20 03:54:31;;;;;;;16.65;4.72;;;;;;;6.61;93.23;99008.84;5046662;28;20079;-44
2022/12/20 03:56:58;;;;;;;28.17;3.25;;;;;;;6.61;93.26;98999.78;5047650;28;20612;-42
2022/12/20 03:59:24;;;;;;;18.00;3.53;;;;;;;6.62;93.33;99015.09;5048492;28;20048;-41
2022/12/20 04:01:51;;;;;;;14.38;3.63;;;;;;;6.63;93.41;99013.97;5054827;28;20055;-42
2022/12/20 04:04:18;;;;;;;25.02;4.88;;;;;;;6.63;93.47;99008.47;5048777;28;20059;-41
2022/12/20 04:06:45;;;;;;;22.20;6.43;;;;;;;6.62;93.47;99010.41;5046471;28;20068;-41
2022/12/20 04:09:12;;;;;;;19.08;3.78;;;;;;;6.61;93.56;99019.84;5047451;28;20041;-41
2022/12/20 04:11:38;;;;;;;21.98;5.07;;;;;;;6.60;93.56;99012.72;5047798;28;20040;-41
2022/12/20 04:14:05;;;;;;;16.30;6.20;;;;;;;6.59;93.53;99013.88;5047342;28;20049;-41
2022/12/20 04:16:32;;;;;;;23.17;3.75;;;;;;;6.57;93.84;99013.44;5040603;28;20062;-41
2022/12/20 04:18:59;;;;;;;19.35;3.92;;;;;;;6.57;93.84;99018.94;5035960;28;20080;-49
2022/12/20 04:21:33;;;;;;;15.60;4.25;;;;;;;6.55;93.72;99012.22;5029932;28;20128;-42
2022/12/20 04:24:01;;;;;;;16.58;4.18;;;;;;;6.54;93.95;99022.41;5030963;28;20049;-41
2022/12/20 04:26:28;;;;;;;18.45;2.95;;;;;;;6.55;93.87;99025.97;5048245;28;20040;-41
2022/12/20 04:28:55;;;;;;;14.90;3.25;;;;;;;6.52;93.90;99026.69;5047387;28;20490;-46
2022/12/20 04:31:22;;;;;;;16.92;3.25;;;;;;;6.49;94.14;99028.19;5041212;28;20049;-41
2022/12/20 04:33:50;;;;;;;29.30;4.13;;;;;;;6.48;94.21;99034.06;5048100;28;20048;-41
2022/12/20 04:36:17;;;;;;;20.85;3.38;;;;;;;6.48;94.17;99026.63;5046468;28;20044;-41
2022/12/20 04:38:44;;;;;;;23.70;2.88;;;;;;;6.48;94.41;99026.63;5047179;28;20049;-41
2022/12/20 04:41:20;;;;;;;13.20;2.97;;;;;;;6.47;94.47;99030.50;5026959;28;20103;-41
2022/12/20 04:43:54;;;;;;;19.17;2.85;;;;;;;6.47;94.36;99036.00;5054106;28;20048;-42
2022/12/20 04:46:22;;;;;;;16.55;3.05;;;;;;;6.47;94.57;99037.97;5047092;28;20064;-41
2022/12/20 04:48:49;;;;;;;13.30;2.83;;;;;;;6.46;94.55;99039.91;5046263;28;20486;-41
2022/12/20 04:51:26;;;;;;;14.60;2.13;;;;;;;6.46;94.63;99036.38;5023593;28;20092;-42
2022/12/20 04:53:53;;;;;;;18.52;3.47;;;;;;;6.44;94.57;99036.72;5048559;28;20500;-41
2022/12/20 04:56:23;;;;;;;19.80;3.88;;;;;;;6.43;94.73;99037.91;5048364;28;20075;-41
2022/12/20 04:58:52;;;;;;;13.55;3.20;;;;;;;6.43;94.82;99045.34;5031056;28;20551;-41
2022/12/20 05:01:20;;;;;;;18.42;3.95;;;;;;;6.44;94.53;99041.44;5031109;28;20414;-41
2022/12/20 05:03:48;;;;;;;12.40;2.95;;;;;;;6.43;94.62;99051.66;5068406;28;20079;-41
2022/12/20 05:06:16;;;;;;;15.95;3.42;;;;;;;6.42;95.18;99046.50;5053732;28;20569;-41
2022/12/20 05:08:42;;;;;;;16.58;4.50;;;;;;;6.44;94.87;99066.16;5028287;28;20045;-43
2022/12/20 05:11:10;;;;;;;12.75;2.70;;;;;;;6.41;94.87;99059.44;5046422;28;20045;-41
2022/12/20 05:13:36;;;;;;;12.70;3.58;;;;;;;6.41;94.96;99056.69;5048255;28;20566;-41
2022/12/20 05:16:04;;;;;;;14.52;2.70;;;;;;;6.42;94.98;99061.03;5047712;28;20049;-41
2022/12/20 05:18:31;;;;;;;13.60;3.33;;;;;;;6.43;94.92;99062.66;5047070;28;20533;-44
2022/12/20 05:26:35;;;;;;;12.90;2.08;;;;;;;6.55;94.78;99065.25;5046377;28;20118;-41
2022/12/20 05:29:03;;;;;;;12.75;2.47;;;;;;;6.61;94.53;99074.81;5047042;28;20119;-41
2022/12/20 05:31:30;;;;;;;12.25;1.83;;;;;;;6.64;94.62;99073.31;5038773;28;20049;-41
2022/12/20 05:33:57;;;;;;;7.00;1.67;;;;;;;6.65;94.44;99064.69;5030142;28;20052;-42
2022/12/20 05:36:24;;;;;;;14.32;1.80;;;;;;;6.65;94.42;99064.69;5045746;28;20091;-40
2022/12/20 05:38:50;;;;;;;13.98;2.92;;;;;;;6.63;94.56;99067.00;5045709;28;20056;-41
2022/12/20 05:41:20;;;;;;;9.55;1.75;;;;;;;6.64;94.74;99065.88;5046317;28;20094;-41
2022/12/20 05:43:46;;;;;;;11.65;2.33;;;;;;;6.66;94.47;99073.75;5057216;28;20044;-41
2022/12/20 05:46:13;;;;;;;11.75;2.38;;;;;;;6.65;94.61;99075.69;5051143;28;20445;-41
2022/12/20 05:48:40;;;;;;;10.93;2.50;;;;;;;6.62;94.43;99076.41;5042693;28;20046;-41
2022/12/20 05:51:06;;;;;;;16.38;3.15;;;;;;;6.61;94.45;99069.31;5045720;28;20124;-41
2022/12/20 05:53:33;;;;;;;11.35;2.00;;;;;;;6.58;94.54;99086.53;5044659;28;20044;-43
2022/12/20 05:56:00;;;;;;;14.18;3.35;;;;;;;6.55;94.55;99081.75;5045918;28;20052;-41
2022/12/20 05:58:27;;;;;;;20.63;3.28;;;;;;;6.52;94.75;99096.22;5043988;28;20505;-41
2022/12/20 06:00:55;;;;;;;15.20;2.38;;;;;;;6.48;94.64;99089.84;5028189;28;20053;-41
2022/12/20 06:03:22;;;;;;;14.10;3.50;;;;;;;6.48;94.77;99098.09;5048385;28;20137;-41
2022/12/20 06:05:48;;;;;;;15.68;2.53;;;;;;;6.48;94.86;99076.09;5043847;28;20398;-41
2022/12/20 06:08:15;;;;;;;10.75;2.53;;;;;;;6.46;94.82;99086.63;5047530;28;20057;-41
2022/12/20 06:10:42;;;;;;;16.15;3.30;;;;;;;6.44;94.92;99093.66;5043408;28;20029;-41
2022/12/20 06:13:10;;;;;;;13.70;2.20;;;;;;;6.39;94.91;99091.97;5046582;28;20045;-41
2022/12/20 06:15:37;;;;;;;13.75;2.35;;;;;;;6.35;94.71;99099.38;5034584;28;20368;-41
2022/12/20 06:18:05;;;;;;;13.35;3.22;;;;;;;6.30;94.85;99094.13;5045166;28;20079;-42
2022/12/20 06:20:33;;;;;;;15.88;3.83;;;;;;;6.30;94.92;99096.09;5045939;28;20052;-40
2022/12/20 06:23:00;;;;;;;11.05;2.72;;;;;;;6.28;95.04;99093.69;5036442;28;20220;-41
2022/12/20 06:25:27;;;;;;;19.35;3.42;;;;;;;6.26;94.91;99085.00;5045176;28;20494;-41
2022/12/20 06:27:59;;;;;;;9.75;2.05;;;;;;;6.24;94.84;99098.31;5040688;28;20057;-46
2022/12/20 06:30:26;;;;;;;17.23;3.72;;;;;;;6.22;94.99;99086.09;5046770;28;20157;-41
2022/12/20 06:33:01;;;;;;;23.13;3.47;;;;;;;6.21;95.09;99099.00;5046673;28;20106;-41
2022/12/20 06:35:29;;;;;;;11.27;2.65;;;;;;;6.19;94.82;99097.78;5047001;28;20037;-44
2022/12/20 06:37:55;;;;;;;13.73;2.72;;;;;;;6.17;94.87;99100.88;5046457;28;20064;-41
2022/12/20 06:40:22;;;;;;;18.10;4.05;;;;;;;6.15;94.76;99100.44;5030984;28;20048;-41
2022/12/20 06:42:49;;;;;;;8.95;2.42;;;;;;;6.13;94.87;99109.03;5030855;28;20084;-41
2022/12/20 06:45:16;;;;;;;16.38;3.03;;;;;;;6.12;95.06;99112.13;5034667;28;20052;-40
2022/12/20 06:47:43;;;;;;;23.13;3.00;;;;;;;6.11;94.86;99102.31;5046846;28;20449;-41
2022/12/20 06:50:10;;;;;;;12.23;1.92;;;;;;;6.09;94.91;99110.09;5046713;28;20483;-40
2022/12/20 06:52:37;;;;;;;13.45;3.20;;;;;;;6.09;95.05;99112.84;5046016;28;20055;-41
2022/12/20 06:55:04;;;;;;;10.25;2.40;;;;;;;6.05;94.99;99106.47;5046727;28;20045;-41
2022/12/20 06:57:31;;;;;;;8.32;2.22;;;;;;;6.02;94.97;99107.97;5045885;28;20393;-41
2022/12/20 06:59:58;;;;;;;5.20;1.70;;;;;;;6.00;94.79;99120.47;5045800;28;20048;-41
2022/12/20 07:02:25;;;;;;;12.73;2.13;;;;;;;6.00;94.83;99123.22;5049337;28;20518;-41
2022/12/20 07:04:54;;;;;;;8.93;2.03;;;;;;;5.99;95.13;99124.34;5046672;28;20049;-41
2022/12/20 07:07:20;;;;;;;12.80;3.17;;;;;;;5.98;94.94;99128.28;5038505;28;20037;-42
2022/12/20 07:09:47;;;;;;;7.13;2.17;;;;;;;5.95;94.99;99123.50;5049587;28;20063;-40
2022/12/20 07:12:14;;;;;;;10.02;3.55;;;;;;;5.93;95.07;99123.81;5050549;28;20494;-41
2022/12/20 07:14:41;;;;;;;15.55;2.80;;;;;;;5.92;94.89;99124.19;5048261;28;20041;-41
2022/12/20 07:17:08;;;;;;;10.25;1.55;;;;;;;5.87;94.87;99128.00;5048162;28;20064;-41
2022/12/20 07:19:35;;;;;;;7.78;1.77;;;;;;;5.87;95.14;99132.69;5048877;28;20433;-41
2022/12/20 07:22:03;;;;;;;10.18;2.08;;;;;;;5.87;95.30;99128.00;5049359;28;20115;-49
2022/12/20 07:24:30;;;;;;;12.80;4.32;;;;;;;5.89;95.18;99128.44;5047418;28;20567;-41
2022/12/20 07:26:57;;;;;;;11.15;2.03;;;;;;;5.91;95.41;99139.06;5048692;28;20220;-41
2022/12/20 07:29:24;;;;;;;9.15;3.13;;;;;;;5.89;95.39;99130.38;5044327;28;20139;-41
2022/12/20 07:31:51;;;;;;;10.82;2.08;;;;;;;5.90;94.97;99145.72;5047733;28;20346;-41
2022/12/20 07:34:18;;;;;;;7.40;1.85;;;;;;;5.90;95.14;99140.22;5047475;28;20044;-41
2022/12/20 07:36:45;;;;;;;10.85;2.35;;;;;;;5.91;95.10;99144.56;5047129;28;20510;-41
2022/12/20 07:39:12;;;;;;;14.38;2.88;;;;;;;5.89;95.22;99147.66;5046458;28;20041;-43
2022/12/20 07:41:39;;;;;;;10.15;1.92;;;;;;;5.89;95.19;99146.88;5041357;28;20273;-41
2022/12/20 07:44:06;;;;;;;10.30;1.95;;;;;;;5.88;95.54;99150.75;5055393;28;20544;-41
2022/12/20 07:46:33;;;;;;;7.43;2.25;;;;;;;5.87;95.09;99160.16;5049757;28;20131;-41
2022/12/20 07:49:00;;;;;;;13.57;3.55;;;;;;;5.85;95.32;99162.47;5048944;28;20045;-40
2022/12/20 07:51:30;;;;;;;5.43;1.83;;;;;;;5.82;95.19;99168.63;5049609;28;20490;-40
2022/12/20 07:54:01;;;;;;;11.18;2.47;;;;;;;5.82;95.41;99169.44;5044999;28;20036;-41
2022/12/20 07:56:30;;;;;;;14.32;1.90;;;;;;;5.83;95.41;99172.94;5048603;28;20053;-41
2022/12/20 07:59:09;;;;;;;6.57;1.77;;;;;;;5.82;95.42;99174.13;5037271;28;20052;-41
2022/12/20 08:01:36;;;;;;;11.35;2.47;;;;;;;5.80;95.36;99177.19;5051082;28;20339;-41
2022/12/20 08:04:10;;;;;;;10.88;2.35;;;;;;;5.78;95.17;99182.25;5045592;28;20437;-41
2022/12/20 08:06:38;;;;;;;13.07;2.85;;;;;;;5.75;95.51;99174.72;5044818;28;20126;-43
2022/12/20 08:09:06;;;;;;;11.27;2.33;;;;;;;5.74;95.52;99183.31;5049416;28;20048;-41
2022/12/20 08:11:35;;;;;;;8.30;2.05;;;;;;;5.73;95.51;99182.50;5047000;28;20055;-41
2022/12/20 08:14:05;;;;;;;16.50;2.83;;;;;;;5.72;95.45;99196.59;5043844;28;20379;-41
2022/12/20 08:16:33;;;;;;;11.00;1.80;;;;;;;5.71;95.44;99186.75;5046729;28;20538;-41
2022/12/20 08:18:59;;;;;;;13.57;2.47;;;;;;;5.69;95.44;99181.63;5047563;28;20509;-41
2022/12/20 08:21:27;;;;;;;7.57;2.13;;;;;;;5.69;95.15;99197.28;5045527;28;20075;-41
2022/12/20 08:23:55;;;;;;;8.98;1.70;;;;;;;5.68;95.43;99206.66;5047844;28;20041;-40
2022/12/20 08:26:22;;;;;;;8.80;1.48;;;;;;;5.68;95.31;99206.66;5045177;28;20467;-41
2022/12/20 08:28:49;;;;;;;13.23;2.42;;;;;;;5.67;95.42;99213.31;5044812;28;20107;-43
2022/12/20 08:31:15;;;;;;;7.63;1.80;;;;;;;5.67;95.19;99221.53;5049755;28;20045;-45
2022/12/20 08:33:42;;;;;;;8.88;2.05;;;;;;;5.67;95.18;99229.78;5049615;28;20513;-43
2022/12/20 08:36:11;;;;;;;8.93;1.85;;;;;;;5.67;95.07;99224.28;5049976;28;20045;-40
2022/12/20 08:38:38;;;;;;;7.18;3.13;;;;;;;5.65;95.18;99226.59;5041960;28;20140;-40
2022/12/20 08:41:09;;;;;;;16.77;2.90;;;;;;;5.66;94.98;99218.00;5048454;28;20045;-40
2022/12/20 08:43:37;;;;;;;13.10;1.70;;;;;;;5.66;95.00;99220.75;5056179;28;20079;-40
2022/12/20 08:46:05;;;;;;;15.43;2.20;;;;;;;5.65;95.06;99226.59;5049114;28;20140;-41
2022/12/20 08:48:32;;;;;;;11.45;1.60;;;;;;;5.65;95.00;99229.31;5049548;28;21554;-41
2022/12/20 08:51:02;;;;;;;11.73;2.85;;;;;;;5.64;95.00;99228.53;5031889;28;20037;-40
2022/12/20 08:53:30;;;;;;;8.18;2.53;;;;;;;5.64;94.96;99233.25;5046555;28;20486;-41
2022/12/20 08:56:04;;;;;;;10.77;2.15;;;;;;;5.62;94.65;99235.50;5039995;28;20080;-40
2022/12/20 08:58:31;;;;;;;13.57;1.80;;;;;;;5.62;94.47;99241.00;5028933;28;20045;-42
2022/12/20 09:01:01;;;;;;;10.20;2.13;;;;;;;5.61;94.46;99239.44;5048217;28;20069;-43
2022/12/20 09:03:34;;;;;;;7.50;1.67;;;;;;;5.63;94.53;99248.09;5032922;28;20045;-41
2022/12/20 09:06:05;;;;;;;12.27;1.90;;;;;;;5.61;94.43;99244.91;5049707;28;20045;-42
2022/12/20 09:08:33;;;;;;;9.85;2.08;;;;;;;5.61;94.30;99234.75;5048854;28;20073;-41
2022/12/20 09:11:05;;;;;;;7.18;1.67;;;;;;;5.63;94.04;99245.34;5031890;28;20051;-41
2022/12/20 09:13:32;;;;;;;11.77;2.22;;;;;;;5.62;94.02;99246.50;5044674;28;20033;-42
2022/12/20 09:16:10;;;;;;;14.43;2.67;;;;;;;5.61;93.86;99251.22;5041940;28;20103;-41
2022/12/20 09:18:36;;;;;;;10.63;1.67;;;;;;;5.63;93.56;99254.41;5046870;28;20091;-41
2022/12/20 09:21:05;;;;;;;15.05;1.73;;;;;;;5.63;93.73;99250.84;5048408;28;20049;-41
2022/12/20 09:23:34;;;;;;;9.38;2.20;;;;;;;5.64;93.43;99260.69;5048033;28;20080;-44
2022/12/20 09:26:06;;;;;;;11.23;2.63;;;;;;;5.64;93.51;99250.50;5031040;28;20045;-41
2022/12/20 09:28:33;;;;;;;9.65;2.10;;;;;;;5.64;93.18;99255.19;5048915;28;20041;-42
2022/12/20 09:31:01;;;;;;;11.45;2.13;;;;;;;5.63;93.00;99253.59;5045615;28;20041;-44
2022/12/20 09:33:30;;;;;;;11.07;2.65;;;;;;;5.65;92.87;99265.81;5040010;28;20037;-41
2022/12/20 09:35:58;;;;;;;10.68;2.65;;;;;;;5.64;92.99;99266.19;5047522;28;20052;-42
2022/12/20 09:38:25;;;;;;;10.63;1.88;;;;;;;5.63;92.70;99267.31;5046777;28;20041;-47
2022/12/20 09:40:55;;;;;;;16.83;2.72;;;;;;;5.65;92.71;99265.03;5048609;28;20056;-41
2022/12/20 09:43:22;;;;;;;9.77;2.00;;;;;;;5.65;92.55;99274.06;5054077;28;20045;-45
2022/12/20 09:45:52;;;;;;;7.00;1.30;;;;;;;5.65;92.16;99278.75;5048010;28;20148;-41
2022/12/20 09:48:24;;;;;;;6.07;2.25;;;;;;;5.66;92.35;99280.34;5040821;28;20445;-41
2022/12/20 09:51:09;;;;;;;4.38;1.60;;;;;;;5.66;91.95;99285.84;5048936;28;20052;-42
2022/12/20 09:53:50;;;;;;;15.18;2.92;;;;;;;5.66;91.71;99285.84;5048957;28;20087;-41
2022/12/20 09:56:28;;;;;;;10.32;2.10;;;;;;;5.69;91.62;99290.66;5048187;28;20044;-41
2022/12/20 09:59:11;;;;;;;10.88;1.70;;;;;;;5.71;91.78;99302.88;5044314;28;20052;-41
2022/12/20 10:01:42;;;;;;;;;;;;;;;5.72;91.43;99301.72;5051053;28;20508;-42
2022/12/20 10:04:38;;;;;;;14.50;2.25;;;;;;;5.72;91.16;99318.19;5045019;28;20027;-49
2022/12/20 10:07:23;;;;;;;10.68;3.25;;;;;;;5.75;91.15;99314.75;5025251;28;20122;-44
2022/12/20 10:10:13;;;;;;;17.55;3.40;;;;;;;5.80;91.41;99320.00;5048357;28;20091;-41
2022/12/20 10:12:54;;;;;;;9.45;3.63;;;;;;;5.88;91.20;99310.84;5049288;28;20453;-42
2022/12/20 10:15:40;;;;;;;19.83;3.25;;;;;;;5.94;90.87;99316.91;5046868;28;20052;-42
2022/12/20 10:18:29;;;;;;;5.88;1.88;;;;;;;5.94;90.59;99314.16;5044739;28;20047;-41
2022/12/20 10:21:35;;;;;;;14.18;2.75;;;;;;;5.94;90.40;99325.13;5055139;28;20498;-42
2022/12/20 10:24:17;;;;;;;9.20;2.90;;;;;;;5.92;90.54;99331.00;5044910;28;20556;-42
2022/12/20 10:26:47;;;;;;;8.48;1.48;;;;;;;5.93;90.61;99329.81;5042069;28;20091;-41
2022/12/20 10:29:14;;;;;;;11.75;2.65;;;;;;;5.96;90.32;99329.13;5045289;28;20450;-42
2022/12/20 10:31:41;;;;;;;14.00;2.20;;;;;;;5.99;90.21;99322.13;5037356;28;20040;-43
2022/12/20 10:34:08;;;;;;;12.80;2.72;;;;;;;6.02;90.14;99326.94;5046554;28;20132;-42
2022/12/20 10:36:36;;;;;;;10.82;2.45;;;;;;;6.04;89.95;99330.13;5047071;28;20136;-42
2022/12/20 10:39:06;;;;;;;10.23;2.28;;;;;;;6.06;89.54;99327.84;5044634;28;20406;-42
2022/12/20 10:41:39;;;;;;;12.98;2.47;;;;;;;6.10;89.28;99324.06;5048437;28;20045;-42
2022/12/20 10:44:29;;;;;;;8.88;1.55;;;;;;;6.13;89.40;99331.59;5051020;28;20140;-41
2022/12/20 10:46:58;;;;;;;9.18;1.65;;;;;;;6.16;89.30;99335.59;5046993;28;20451;-41
2022/12/20 10:49:31;;;;;;;10.18;3.40;;;;;;;6.19;88.82;99325.84;5046806;28;20047;-43
2022/12/20 10:52:07;;;;;;;11.30;2.65;;;;;;;6.21;88.61;99332.59;5047829;28;20139;-42
2022/12/20 10:54:41;;;;;;;17.40;3.60;;;;;;;6.23;88.38;99333.03;5046404;28;20052;-41
2022/12/20 10:57:28;;;;;;;18.05;5.22;;;;;;;6.24;88.00;99331.91;5046079;28;20041;-41
2022/12/20 10:59:59;;;;;;;6.28;2.28;;;;;;;6.26;88.13;99343.31;5047314;28;20049;-44
2022/12/20 11:02:33;;;;;;;15.52;3.67;;;;;;;6.28;87.91;99331.97;5048877;28;20071;-41
2022/12/20 11:05:10;;;;;;;16.98;2.42;;;;;;;6.28;87.82;99335.53;5043007;28;20110;-42
2022/12/20 11:07:50;;;;;;;12.60;2.35;;;;;;;6.30;87.79;99335.19;5047463;28;20060;-41
2022/12/20 11:10:37;;;;;;;15.95;3.28;;;;;;;6.31;87.77;99334.81;5035742;28;20059;-42
2022/12/20 11:13:05;;;;;;;17.80;2.85;;;;;;;6.32;87.64;99336.44;5042271;28;20055;-47
2022/12/20 11:15:34;;;;;;;19.08;4.30;;;;;;;6.35;87.37;99335.75;5046419;28;20091;-39
2022/12/20 11:18:23;;;;;;;21.23;4.10;;;;;;;6.39;87.02;99342.13;5047220;28;20053;-40
2022/12/20 11:21:05;;;;;;;10.52;3.13;;;;;;;6.42;86.92;99335.91;5040210;28;20045;-43
2022/12/20 11:24:05;;;;;;;16.05;2.55;;;;;;;6.46;86.60;99338.78;5039674;28;20045;-42
2022/12/20 11:27:10;;;;;;;8.13;2.17;;;;;;;6.46;86.41;99342.28;5044274;28;20045;-40
2022/12/20 11:30:02;;;;;;;15.40;2.33;;;;;;;6.48;86.40;99326.28;5043325;28;20068;-40
2022/12/20 11:32:53;;;;;;;24.67;4.75;;;;;;;6.51;85.82;99317.28;5045426;28;20045;-41
2022/12/20 11:35:39;;;;;;;24.02;3.78;;;;;;;6.53;85.62;99320.50;5037351;28;20033;-40
2022/12/20 11:38:09;;;;;;;24.17;4.15;;;;;;;6.57;85.85;99331.59;5045398;28;20060;-43
2022/12/20 11:41:22;;;;;;;12.50;2.65;;;;;;;6.59;85.75;99318.31;5048369;28;20041;-40
2022/12/20 11:44:23;;;;;;;15.15;4.18;;;;;;;6.59;85.52;99324.56;5040560;28;20504;-40
2022/12/20 11:47:20;;;;;;;17.20;3.05;;;;;;;6.60;85.52;99334.44;5048167;28;20134;-40
2022/12/20 11:50:19;;;;;;;11.45;2.45;;;;;;;6.61;85.54;99329.75;5050476;28;20441;-40
2022/12/20 11:52:55;;;;;;;17.23;2.70;;;;;;;6.62;85.58;99312.88;5038451;28;20048;-40
2022/12/20 11:55:28;;;;;;;16.30;3.33;;;;;;;6.63;85.41;99314.50;5051362;28;20140;-40
2022/12/20 11:58:12;;;;;;;15.02;2.63;;;;;;;6.65;85.43;99311.38;5048566;28;20557;-41
2022/12/20 12:00:53;;;;;;;17.30;3.72;;;;;;;6.65;85.49;99306.69;5048188;28;20045;-41
2022/12/20 12:03:29;;;;;;;15.95;2.67;;;;;;;6.68;85.16;99316.97;5050044;28;20037;-41
2022/12/20 12:06:15;;;;;;;13.43;3.60;;;;;;;6.70;85.25;99313.84;5051193;28;20093;-42